sensor_id;sensor_type;location;lat;lon;timestamp;P1;durP1;ratioP1;P2;durP2;ratioP2
7460;SDS011;6757;52.258;12.840;2022-10-17T00:01:40;1.52;;;1.30;;
7460;SDS011;6757;52.258;12.840;2022-10-17T00:04:07;1.42;;;1.33;;
7460;SDS011;6757;52.258;12.840;2022-10-17T00:06:34;2.53;;;1.27;;
7460;SDS011;6757;52.258;12.840;2022-10-17T00:09:01;2.55;;;1.45;;
7460;SDS011;6757;52.258;12.840;2022-10-17T00:11:29;1.15;;;0.82;;
7460;SDS011;6757;52.258;12.840;2022-10-17T00:13:56;1.85;;;1.20;;
7460;SDS011;6757;52.258;12.840;2022-10-17T00:16:25;0.95;;;0.95;;
7460;SDS011;6757;52.258;12.840;2022-10-17T00:18:53;1.40;;;1.17;;
7460;SDS011;6757;52.258;12.840;2022-10-17T00:21:21;1.77;;;1.38;;
7460;SDS011;6757;52.258;12.840;2022-10-17T00:23:50;3.35;;;1.52;;
7460;SDS011;6757;52.258;12.840;2022-10-17T00:26:18;1.00;;;0.90;;
7460;SDS011;6757;52.258;12.840;2022-10-17T00:28:45;1.15;;;0.77;;
7460;SDS011;6757;52.258;12.840;2022-10-17T00:31:13;1.45;;;1.10;;
7460;SDS011;6757;52.258;12.840;2022-10-17T00:33:43;1.17;;;0.95;;
7460;SDS011;6757;52.258;12.840;2022-10-17T00:36:11;1.52;;;1.38;;
7460;SDS011;6757;52.258;12.840;2022-10-17T00:38:41;0.90;;;0.90;;
7460;SDS011;6757;52.258;12.840;2022-10-17T00:41:11;1.20;;;1.08;;
7460;SDS011;6757;52.258;12.840;2022-10-17T00:43:54;3.08;;;1.40;;
7460;SDS011;6757;52.258;12.840;2022-10-17T00:46:25;2.45;;;1.20;;
7460;SDS011;6757;52.258;12.840;2022-10-17T00:48:57;1.23;;;1.08;;
7460;SDS011;6757;52.258;12.840;2022-10-17T00:51:29;0.95;;;0.95;;
7460;SDS011;6757;52.258;12.840;2022-10-17T00:54:03;1.67;;;1.30;;
7460;SDS011;6757;52.258;12.840;2022-10-17T00:56:31;2.05;;;1.45;;
7460;SDS011;6757;52.258;12.840;2022-10-17T00:58:58;2.28;;;1.55;;
7460;SDS011;6757;52.258;12.840;2022-10-17T01:01:26;2.60;;;1.10;;
7460;SDS011;6757;52.258;12.840;2022-10-17T01:03:52;1.58;;;1.35;;
7460;SDS011;6757;52.258;12.840;2022-10-17T01:06:21;3.22;;;1.67;;
7460;SDS011;6757;52.258;12.840;2022-10-17T01:08:48;2.00;;;1.42;;
7460;SDS011;6757;52.258;12.840;2022-10-17T01:11:21;1.83;;;1.08;;
7460;SDS011;6757;52.258;12.840;2022-10-17T01:14:00;1.25;;;1.23;;
7460;SDS011;6757;52.258;12.840;2022-10-17T01:16:34;2.53;;;1.00;;
7460;SDS011;6757;52.258;12.840;2022-10-17T01:19:12;3.13;;;1.30;;
7460;SDS011;6757;52.258;12.840;2022-10-17T01:22:04;2.08;;;0.90;;
7460;SDS011;6757;52.258;12.840;2022-10-17T01:24:40;4.95;;;1.40;;
7460;SDS011;6757;52.258;12.840;2022-10-17T01:27:33;1.52;;;1.38;;
7460;SDS011;6757;52.258;12.840;2022-10-17T01:30:25;3.10;;;1.80;;
7460;SDS011;6757;52.258;12.840;2022-10-17T01:33:21;4.05;;;1.85;;
7460;SDS011;6757;52.258;12.840;2022-10-17T01:36:00;2.75;;;1.80;;
7460;SDS011;6757;52.258;12.840;2022-10-17T01:38:35;1.83;;;1.08;;
7460;SDS011;6757;52.258;12.840;2022-10-17T01:41:10;2.45;;;1.33;;
7460;SDS011;6757;52.258;12.840;2022-10-17T01:43:46;2.10;;;1.20;;
7460;SDS011;6757;52.258;12.840;2022-10-17T01:46:21;3.17;;;2.05;;
7460;SDS011;6757;52.258;12.840;2022-10-17T01:48:52;3.55;;;1.50;;
7460;SDS011;6757;52.258;12.840;2022-10-17T01:51:23;1.50;;;1.35;;
7460;SDS011;6757;52.258;12.840;2022-10-17T01:53:57;2.00;;;1.77;;
7460;SDS011;6757;52.258;12.840;2022-10-17T01:56:29;1.73;;;1.13;;
7460;SDS011;6757;52.258;12.840;2022-10-17T01:58:59;4.18;;;1.65;;
7460;SDS011;6757;52.258;12.840;2022-10-17T02:01:33;2.17;;;1.50;;
7460;SDS011;6757;52.258;12.840;2022-10-17T02:04:02;2.90;;;1.75;;
7460;SDS011;6757;52.258;12.840;2022-10-17T02:06:33;3.20;;;1.85;;
7460;SDS011;6757;52.258;12.840;2022-10-17T02:09:00;1.55;;;1.45;;
7460;SDS011;6757;52.258;12.840;2022-10-17T02:11:41;2.83;;;1.85;;
7460;SDS011;6757;52.258;12.840;2022-10-17T02:14:20;2.97;;;1.50;;
7460;SDS011;6757;52.258;12.840;2022-10-17T02:17:00;3.83;;;1.63;;
7460;SDS011;6757;52.258;12.840;2022-10-17T02:19:36;2.90;;;1.48;;
7460;SDS011;6757;52.258;12.840;2022-10-17T02:22:16;2.47;;;1.67;;
7460;SDS011;6757;52.258;12.840;2022-10-17T02:24:53;5.70;;;2.08;;
7460;SDS011;6757;52.258;12.840;2022-10-17T02:27:31;3.35;;;1.63;;
7460;SDS011;6757;52.258;12.840;2022-10-17T02:30:09;3.17;;;1.55;;
7460;SDS011;6757;52.258;12.840;2022-10-17T02:32:42;4.50;;;1.48;;
7460;SDS011;6757;52.258;12.840;2022-10-17T02:35:15;3.38;;;1.65;;
7460;SDS011;6757;52.258;12.840;2022-10-17T02:37:44;2.55;;;1.48;;
7460;SDS011;6757;52.258;12.840;2022-10-17T02:40:13;1.58;;;1.30;;
7460;SDS011;6757;52.258;12.840;2022-10-17T02:42:44;1.27;;;1.25;;
7460;SDS011;6757;52.258;12.840;2022-10-17T02:45:12;2.97;;;1.25;;
7460;SDS011;6757;52.258;12.840;2022-10-17T02:47:44;3.33;;;1.83;;
7460;SDS011;6757;52.258;12.840;2022-10-17T02:50:19;3.20;;;1.40;;
7460;SDS011;6757;52.258;12.840;2022-10-17T02:52:54;2.88;;;1.58;;
7460;SDS011;6757;52.258;12.840;2022-10-17T02:55:52;2.58;;;1.80;;
7460;SDS011;6757;52.258;12.840;2022-10-17T02:58:27;3.20;;;1.45;;
7460;SDS011;6757;52.258;12.840;2022-10-17T03:00:57;3.08;;;1.48;;
7460;SDS011;6757;52.258;12.840;2022-10-17T03:03:27;4.18;;;1.95;;
7460;SDS011;6757;52.258;12.840;2022-10-17T03:05:56;6.05;;;2.47;;
7460;SDS011;6757;52.258;12.840;2022-10-17T03:08:23;3.63;;;1.52;;
7460;SDS011;6757;52.258;12.840;2022-10-17T03:10:51;5.05;;;1.88;;
7460;SDS011;6757;52.258;12.840;2022-10-17T03:13:18;4.60;;;1.92;;
7460;SDS011;6757;52.258;12.840;2022-10-17T03:15:45;3.83;;;2.00;;
7460;SDS011;6757;52.258;12.840;2022-10-17T03:18:12;2.15;;;1.70;;
7460;SDS011;6757;52.258;12.840;2022-10-17T03:20:40;2.70;;;1.88;;
7460;SDS011;6757;52.258;12.840;2022-10-17T03:23:07;5.50;;;1.75;;
7460;SDS011;6757;52.258;12.840;2022-10-17T03:25:34;4.80;;;2.08;;
7460;SDS011;6757;52.258;12.840;2022-10-17T03:28:01;3.60;;;1.80;;
7460;SDS011;6757;52.258;12.840;2022-10-17T03:30:29;3.47;;;1.70;;
7460;SDS011;6757;52.258;12.840;2022-10-17T03:32:57;3.72;;;1.73;;
7460;SDS011;6757;52.258;12.840;2022-10-17T03:35:24;4.30;;;1.83;;
7460;SDS011;6757;52.258;12.840;2022-10-17T03:37:55;3.53;;;2.15;;
7460;SDS011;6757;52.258;12.840;2022-10-17T03:40:21;3.67;;;2.00;;
7460;SDS011;6757;52.258;12.840;2022-10-17T03:42:48;4.15;;;1.98;;
7460;SDS011;6757;52.258;12.840;2022-10-17T03:45:15;4.18;;;2.00;;
7460;SDS011;6757;52.258;12.840;2022-10-17T03:47:42;4.32;;;1.88;;
7460;SDS011;6757;52.258;12.840;2022-10-17T03:50:09;5.57;;;1.88;;
7460;SDS011;6757;52.258;12.840;2022-10-17T03:52:36;1.92;;;1.58;;
7460;SDS011;6757;52.258;12.840;2022-10-17T03:55:05;3.20;;;1.90;;
7460;SDS011;6757;52.258;12.840;2022-10-17T03:57:33;3.58;;;2.05;;
7460;SDS011;6757;52.258;12.840;2022-10-17T04:00:01;4.05;;;2.20;;
7460;SDS011;6757;52.258;12.840;2022-10-17T04:02:29;3.47;;;1.88;;
7460;SDS011;6757;52.258;12.840;2022-10-17T04:04:56;3.13;;;1.75;;
7460;SDS011;6757;52.258;12.840;2022-10-17T04:07:23;3.05;;;2.00;;
7460;SDS011;6757;52.258;12.840;2022-10-17T04:09:50;3.25;;;2.17;;
7460;SDS011;6757;52.258;12.840;2022-10-17T04:12:18;2.95;;;2.08;;
7460;SDS011;6757;52.258;12.840;2022-10-17T04:14:45;3.75;;;2.22;;
7460;SDS011;6757;52.258;12.840;2022-10-17T04:17:12;4.22;;;1.98;;
7460;SDS011;6757;52.258;12.840;2022-10-17T04:19:39;4.38;;;1.58;;
7460;SDS011;6757;52.258;12.840;2022-10-17T04:22:05;2.88;;;1.65;;
7460;SDS011;6757;52.258;12.840;2022-10-17T04:24:33;3.20;;;1.85;;
7460;SDS011;6757;52.258;12.840;2022-10-17T04:27:00;3.88;;;2.35;;
7460;SDS011;6757;52.258;12.840;2022-10-17T04:29:28;2.25;;;1.65;;
7460;SDS011;6757;52.258;12.840;2022-10-17T04:31:55;4.00;;;1.92;;
7460;SDS011;6757;52.258;12.840;2022-10-17T04:34:22;5.40;;;2.33;;
7460;SDS011;6757;52.258;12.840;2022-10-17T04:36:49;5.57;;;2.22;;
7460;SDS011;6757;52.258;12.840;2022-10-17T04:39:16;3.50;;;2.30;;
7460;SDS011;6757;52.258;12.840;2022-10-17T04:41:43;5.80;;;2.42;;
7460;SDS011;6757;52.258;12.840;2022-10-17T04:44:10;5.40;;;2.30;;
7460;SDS011;6757;52.258;12.840;2022-10-17T04:46:38;3.47;;;2.22;;
7460;SDS011;6757;52.258;12.840;2022-10-17T04:49:05;4.82;;;2.38;;
7460;SDS011;6757;52.258;12.840;2022-10-17T04:51:33;6.47;;;2.85;;
7460;SDS011;6757;52.258;12.840;2022-10-17T04:54:00;5.25;;;2.75;;
7460;SDS011;6757;52.258;12.840;2022-10-17T04:56:27;5.90;;;2.35;;
7460;SDS011;6757;52.258;12.840;2022-10-17T04:58:54;4.25;;;2.13;;
7460;SDS011;6757;52.258;12.840;2022-10-17T05:01:21;4.30;;;2.25;;
7460;SDS011;6757;52.258;12.840;2022-10-17T05:03:50;5.40;;;2.45;;
7460;SDS011;6757;52.258;12.840;2022-10-17T05:06:18;5.38;;;2.20;;
7460;SDS011;6757;52.258;12.840;2022-10-17T05:08:47;7.22;;;2.67;;
7460;SDS011;6757;52.258;12.840;2022-10-17T05:11:15;5.00;;;2.50;;
7460;SDS011;6757;52.258;12.840;2022-10-17T05:13:43;6.97;;;2.63;;
7460;SDS011;6757;52.258;12.840;2022-10-17T05:16:10;5.78;;;2.15;;
7460;SDS011;6757;52.258;12.840;2022-10-17T05:18:37;6.57;;;2.78;;
7460;SDS011;6757;52.258;12.840;2022-10-17T05:21:05;5.72;;;2.70;;
7460;SDS011;6757;52.258;12.840;2022-10-17T05:23:32;5.50;;;2.55;;
7460;SDS011;6757;52.258;12.840;2022-10-17T05:25:59;6.40;;;2.50;;
7460;SDS011;6757;52.258;12.840;2022-10-17T05:28:26;4.28;;;2.33;;
7460;SDS011;6757;52.258;12.840;2022-10-17T05:30:53;4.88;;;2.30;;
7460;SDS011;6757;52.258;12.840;2022-10-17T05:33:21;4.45;;;2.50;;
7460;SDS011;6757;52.258;12.840;2022-10-17T05:35:48;5.30;;;2.15;;
7460;SDS011;6757;52.258;12.840;2022-10-17T05:38:17;4.28;;;2.17;;
7460;SDS011;6757;52.258;12.840;2022-10-17T05:40:44;3.08;;;2.20;;
7460;SDS011;6757;52.258;12.840;2022-10-17T05:43:11;5.70;;;2.60;;
7460;SDS011;6757;52.258;12.840;2022-10-17T05:45:38;4.18;;;2.45;;
7460;SDS011;6757;52.258;12.840;2022-10-17T05:48:06;4.80;;;2.20;;
7460;SDS011;6757;52.258;12.840;2022-10-17T05:50:34;5.50;;;2.67;;
7460;SDS011;6757;52.258;12.840;2022-10-17T05:53:01;4.07;;;2.33;;
7460;SDS011;6757;52.258;12.840;2022-10-17T05:55:29;4.13;;;2.55;;
7460;SDS011;6757;52.258;12.840;2022-10-17T05:57:58;7.00;;;2.35;;
7460;SDS011;6757;52.258;12.840;2022-10-17T06:00:25;5.55;;;2.50;;
7460;SDS011;6757;52.258;12.840;2022-10-17T06:02:52;5.15;;;2.25;;
7460;SDS011;6757;52.258;12.840;2022-10-17T06:05:19;6.68;;;2.42;;
7460;SDS011;6757;52.258;12.840;2022-10-17T06:07:46;4.43;;;2.08;;
7460;SDS011;6757;52.258;12.840;2022-10-17T06:10:14;3.95;;;1.90;;
7460;SDS011;6757;52.258;12.840;2022-10-17T06:12:44;5.80;;;2.65;;
7460;SDS011;6757;52.258;12.840;2022-10-17T06:15:15;6.15;;;2.70;;
7460;SDS011;6757;52.258;12.840;2022-10-17T06:17:42;4.20;;;2.10;;
7460;SDS011;6757;52.258;12.840;2022-10-17T06:20:09;4.85;;;2.40;;
7460;SDS011;6757;52.258;12.840;2022-10-17T06:22:36;4.80;;;2.35;;
7460;SDS011;6757;52.258;12.840;2022-10-17T06:25:03;4.35;;;2.20;;
7460;SDS011;6757;52.258;12.840;2022-10-17T06:27:31;4.18;;;2.20;;
7460;SDS011;6757;52.258;12.840;2022-10-17T06:29:59;5.47;;;2.25;;
7460;SDS011;6757;52.258;12.840;2022-10-17T06:32:26;4.50;;;2.20;;
7460;SDS011;6757;52.258;12.840;2022-10-17T06:34:53;5.93;;;2.63;;
7460;SDS011;6757;52.258;12.840;2022-10-17T06:37:20;6.47;;;2.47;;
7460;SDS011;6757;52.258;12.840;2022-10-17T06:39:47;5.85;;;2.53;;
7460;SDS011;6757;52.258;12.840;2022-10-17T06:42:14;5.00;;;2.40;;
7460;SDS011;6757;52.258;12.840;2022-10-17T06:44:40;3.72;;;1.88;;
7460;SDS011;6757;52.258;12.840;2022-10-17T06:47:09;5.03;;;2.30;;
7460;SDS011;6757;52.258;12.840;2022-10-17T06:49:36;3.10;;;1.83;;
7460;SDS011;6757;52.258;12.840;2022-10-17T06:52:03;6.32;;;2.60;;
7460;SDS011;6757;52.258;12.840;2022-10-17T06:54:30;4.50;;;2.28;;
7460;SDS011;6757;52.258;12.840;2022-10-17T06:56:57;5.82;;;2.70;;
7460;SDS011;6757;52.258;12.840;2022-10-17T06:59:24;5.45;;;2.78;;
7460;SDS011;6757;52.258;12.840;2022-10-17T07:01:51;4.28;;;2.33;;
7460;SDS011;6757;52.258;12.840;2022-10-17T07:04:19;6.90;;;2.50;;
7460;SDS011;6757;52.258;12.840;2022-10-17T07:06:46;7.13;;;2.58;;
7460;SDS011;6757;52.258;12.840;2022-10-17T07:09:13;6.18;;;2.63;;
7460;SDS011;6757;52.258;12.840;2022-10-17T07:11:41;5.47;;;2.45;;
7460;SDS011;6757;52.258;12.840;2022-10-17T07:14:08;4.65;;;2.28;;
7460;SDS011;6757;52.258;12.840;2022-10-17T07:16:35;5.53;;;2.60;;
7460;SDS011;6757;52.258;12.840;2022-10-17T07:19:02;5.63;;;2.33;;
7460;SDS011;6757;52.258;12.840;2022-10-17T07:21:30;6.47;;;2.70;;
7460;SDS011;6757;52.258;12.840;2022-10-17T07:23:57;4.95;;;2.17;;
7460;SDS011;6757;52.258;12.840;2022-10-17T07:26:24;5.00;;;2.67;;
7460;SDS011;6757;52.258;12.840;2022-10-17T07:28:51;7.28;;;2.58;;
7460;SDS011;6757;52.258;12.840;2022-10-17T07:31:20;4.85;;;2.67;;
7460;SDS011;6757;52.258;12.840;2022-10-17T07:33:48;6.07;;;2.83;;
7460;SDS011;6757;52.258;12.840;2022-10-17T07:36:16;4.60;;;2.28;;
7460;SDS011;6757;52.258;12.840;2022-10-17T07:38:45;5.88;;;2.53;;
7460;SDS011;6757;52.258;12.840;2022-10-17T07:41:12;5.10;;;2.65;;
7460;SDS011;6757;52.258;12.840;2022-10-17T07:43:39;7.15;;;2.53;;
7460;SDS011;6757;52.258;12.840;2022-10-17T07:46:07;4.47;;;2.22;;
7460;SDS011;6757;52.258;12.840;2022-10-17T07:48:35;6.40;;;2.78;;
7460;SDS011;6757;52.258;12.840;2022-10-17T07:51:03;4.70;;;2.30;;
7460;SDS011;6757;52.258;12.840;2022-10-17T07:53:34;4.85;;;2.33;;
7460;SDS011;6757;52.258;12.840;2022-10-17T07:56:06;4.95;;;2.47;;
7460;SDS011;6757;52.258;12.840;2022-10-17T07:58:35;6.60;;;2.70;;
7460;SDS011;6757;52.258;12.840;2022-10-17T08:01:03;6.05;;;2.55;;
7460;SDS011;6757;52.258;12.840;2022-10-17T08:03:32;5.32;;;2.30;;
7460;SDS011;6757;52.258;12.840;2022-10-17T08:06:00;5.88;;;2.50;;
7460;SDS011;6757;52.258;12.840;2022-10-17T08:08:28;5.63;;;2.55;;
7460;SDS011;6757;52.258;12.840;2022-10-17T08:10:59;6.25;;;2.70;;
7460;SDS011;6757;52.258;12.840;2022-10-17T08:13:29;5.47;;;2.50;;
7460;SDS011;6757;52.258;12.840;2022-10-17T08:15:58;4.55;;;2.35;;
7460;SDS011;6757;52.258;12.840;2022-10-17T08:18:25;5.57;;;2.50;;
7460;SDS011;6757;52.258;12.840;2022-10-17T08:20:52;3.30;;;2.10;;
7460;SDS011;6757;52.258;12.840;2022-10-17T08:23:19;3.92;;;2.38;;
7460;SDS011;6757;52.258;12.840;2022-10-17T08:25:46;4.60;;;2.40;;
7460;SDS011;6757;52.258;12.840;2022-10-17T08:28:13;6.65;;;2.85;;
7460;SDS011;6757;52.258;12.840;2022-10-17T08:30:41;5.72;;;2.20;;
7460;SDS011;6757;52.258;12.840;2022-10-17T08:33:08;4.95;;;2.30;;
7460;SDS011;6757;52.258;12.840;2022-10-17T08:35:35;7.03;;;2.85;;
7460;SDS011;6757;52.258;12.840;2022-10-17T08:38:02;6.07;;;2.53;;
7460;SDS011;6757;52.258;12.840;2022-10-17T08:40:30;5.30;;;2.33;;
7460;SDS011;6757;52.258;12.840;2022-10-17T08:43:03;5.95;;;2.60;;
7460;SDS011;6757;52.258;12.840;2022-10-17T08:45:52;3.55;;;2.15;;
7460;SDS011;6757;52.258;12.840;2022-10-17T08:48:24;6.55;;;2.60;;
7460;SDS011;6757;52.258;12.840;2022-10-17T08:50:55;5.93;;;2.80;;
7460;SDS011;6757;52.258;12.840;2022-10-17T08:53:28;5.00;;;2.47;;
7460;SDS011;6757;52.258;12.840;2022-10-17T08:56:00;5.78;;;2.50;;
7460;SDS011;6757;52.258;12.840;2022-10-17T08:58:31;5.53;;;2.78;;
7460;SDS011;6757;52.258;12.840;2022-10-17T09:01:03;5.85;;;2.20;;
7460;SDS011;6757;52.258;12.840;2022-10-17T09:03:50;5.65;;;2.67;;
7460;SDS011;6757;52.258;12.840;2022-10-17T09:06:32;3.95;;;2.63;;
7460;SDS011;6757;52.258;12.840;2022-10-17T09:09:08;6.07;;;2.60;;
7460;SDS011;6757;52.258;12.840;2022-10-17T09:11:52;6.43;;;2.75;;
7460;SDS011;6757;52.258;12.840;2022-10-17T09:14:37;4.60;;;2.25;;
7460;SDS011;6757;52.258;12.840;2022-10-17T09:17:29;5.82;;;2.45;;
7460;SDS011;6757;52.258;12.840;2022-10-17T09:20:04;6.13;;;2.65;;
7460;SDS011;6757;52.258;12.840;2022-10-17T09:22:39;6.13;;;2.38;;
7460;SDS011;6757;52.258;12.840;2022-10-17T09:25:11;8.02;;;2.65;;
7460;SDS011;6757;52.258;12.840;2022-10-17T09:27:43;4.85;;;2.40;;
7460;SDS011;6757;52.258;12.840;2022-10-17T09:30:35;4.53;;;2.75;;
7460;SDS011;6757;52.258;12.840;2022-10-17T09:33:12;4.32;;;2.40;;
7460;SDS011;6757;52.258;12.840;2022-10-17T09:35:41;5.78;;;2.35;;
7460;SDS011;6757;52.258;12.840;2022-10-17T09:38:15;6.22;;;2.78;;
7460;SDS011;6757;52.258;12.840;2022-10-17T09:40:45;5.72;;;2.67;;
7460;SDS011;6757;52.258;12.840;2022-10-17T09:43:20;7.88;;;2.75;;
7460;SDS011;6757;52.258;12.840;2022-10-17T09:45:51;5.65;;;2.50;;
7460;SDS011;6757;52.258;12.840;2022-10-17T09:48:30;6.53;;;2.97;;
7460;SDS011;6757;52.258;12.840;2022-10-17T09:51:02;6.35;;;2.83;;
7460;SDS011;6757;52.258;12.840;2022-10-17T09:53:32;5.45;;;2.70;;
7460;SDS011;6757;52.258;12.840;2022-10-17T09:56:04;8.25;;;2.85;;
7460;SDS011;6757;52.258;12.840;2022-10-17T09:58:39;5.47;;;2.80;;
7460;SDS011;6757;52.258;12.840;2022-10-17T10:01:15;6.00;;;3.22;;
7460;SDS011;6757;52.258;12.840;2022-10-17T10:03:47;6.88;;;2.50;;
7460;SDS011;6757;52.258;12.840;2022-10-17T10:06:16;7.32;;;2.72;;
7460;SDS011;6757;52.258;12.840;2022-10-17T10:08:47;7.50;;;3.05;;
7460;SDS011;6757;52.258;12.840;2022-10-17T10:11:17;6.15;;;2.75;;
7460;SDS011;6757;52.258;12.840;2022-10-17T10:13:48;5.60;;;2.75;;
7460;SDS011;6757;52.258;12.840;2022-10-17T10:16:17;6.95;;;2.95;;
7460;SDS011;6757;52.258;12.840;2022-10-17T10:18:49;6.07;;;2.75;;
7460;SDS011;6757;52.258;12.840;2022-10-17T10:21:17;4.45;;;2.53;;
7460;SDS011;6757;52.258;12.840;2022-10-17T10:24:01;6.32;;;2.35;;
7460;SDS011;6757;52.258;12.840;2022-10-17T10:26:33;7.30;;;3.00;;
7460;SDS011;6757;52.258;12.840;2022-10-17T10:29:04;6.05;;;2.97;;
7460;SDS011;6757;52.258;12.840;2022-10-17T10:31:46;4.22;;;2.55;;
7460;SDS011;6757;52.258;12.840;2022-10-17T10:34:17;5.57;;;2.72;;
7460;SDS011;6757;52.258;12.840;2022-10-17T10:36:52;6.45;;;2.67;;
7460;SDS011;6757;52.258;12.840;2022-10-17T10:39:28;6.78;;;2.55;;
7460;SDS011;6757;52.258;12.840;2022-10-17T10:42:05;9.25;;;2.97;;
7460;SDS011;6757;52.258;12.840;2022-10-17T10:44:43;4.40;;;2.75;;
7460;SDS011;6757;52.258;12.840;2022-10-17T10:47:16;7.50;;;3.10;;
7460;SDS011;6757;52.258;12.840;2022-10-17T10:49:48;6.68;;;2.42;;
7460;SDS011;6757;52.258;12.840;2022-10-17T10:54:59;5.20;;;2.78;;
7460;SDS011;6757;52.258;12.840;2022-10-17T10:57:40;5.82;;;2.65;;
7460;SDS011;6757;52.258;12.840;2022-10-17T11:00:11;5.15;;;2.55;;
7460;SDS011;6757;52.258;12.840;2022-10-17T11:02:43;7.05;;;2.75;;
7460;SDS011;6757;52.258;12.840;2022-10-17T11:05:23;3.90;;;2.45;;
7460;SDS011;6757;52.258;12.840;2022-10-17T11:08:04;6.70;;;2.67;;
7460;SDS011;6757;52.258;12.840;2022-10-17T11:10:41;5.82;;;2.25;;
7460;SDS011;6757;52.258;12.840;2022-10-17T11:15:48;6.25;;;2.47;;
7460;SDS011;6757;52.258;12.840;2022-10-17T11:18:21;6.90;;;2.33;;
7460;SDS011;6757;52.258;12.840;2022-10-17T11:20:54;5.50;;;2.55;;
7460;SDS011;6757;52.258;12.840;2022-10-17T11:23:29;5.45;;;2.67;;
7460;SDS011;6757;52.258;12.840;2022-10-17T11:26:06;7.60;;;2.50;;
7460;SDS011;6757;52.258;12.840;2022-10-17T11:28:39;5.78;;;2.47;;
7460;SDS011;6757;52.258;12.840;2022-10-17T11:31:07;4.53;;;2.45;;
7460;SDS011;6757;52.258;12.840;2022-10-17T11:33:40;4.63;;;2.35;;
7460;SDS011;6757;52.258;12.840;2022-10-17T11:36:13;6.25;;;2.60;;
7460;SDS011;6757;52.258;12.840;2022-10-17T11:38:44;3.53;;;2.25;;
7460;SDS011;6757;52.258;12.840;2022-10-17T11:41:16;5.78;;;2.65;;
7460;SDS011;6757;52.258;12.840;2022-10-17T11:43:48;5.15;;;2.67;;
7460;SDS011;6757;52.258;12.840;2022-10-17T11:46:20;6.55;;;2.70;;
7460;SDS011;6757;52.258;12.840;2022-10-17T11:48:57;6.28;;;2.45;;
7460;SDS011;6757;52.258;12.840;2022-10-17T11:51:36;5.53;;;2.50;;
7460;SDS011;6757;52.258;12.840;2022-10-17T11:56:40;5.30;;;2.30;;
7460;SDS011;6757;52.258;12.840;2022-10-17T12:02:13;7.18;;;2.67;;
7460;SDS011;6757;52.258;12.840;2022-10-17T12:04:51;4.05;;;2.35;;
7460;SDS011;6757;52.258;12.840;2022-10-17T12:07:29;6.40;;;2.80;;
7460;SDS011;6757;52.258;12.840;2022-10-17T12:10:06;5.90;;;2.60;;
7460;SDS011;6757;52.258;12.840;2022-10-17T12:12:50;4.97;;;2.50;;
7460;SDS011;6757;52.258;12.840;2022-10-17T12:15:27;5.68;;;2.55;;
7460;SDS011;6757;52.258;12.840;2022-10-17T12:17:56;4.55;;;2.28;;
7460;SDS011;6757;52.258;12.840;2022-10-17T12:22:59;5.13;;;2.40;;
7460;SDS011;6757;52.258;12.840;2022-10-17T12:25:48;6.00;;;2.50;;
7460;SDS011;6757;52.258;12.840;2022-10-17T12:28:18;6.32;;;2.70;;
7460;SDS011;6757;52.258;12.840;2022-10-17T12:30:55;5.90;;;2.60;;
7460;SDS011;6757;52.258;12.840;2022-10-17T12:33:32;3.55;;;2.13;;
7460;SDS011;6757;52.258;12.840;2022-10-17T12:42:32;5.47;;;2.28;;
7460;SDS011;6757;52.258;12.840;2022-10-17T12:51:28;4.63;;;2.55;;
7460;SDS011;6757;52.258;12.840;2022-10-17T12:53:56;4.38;;;1.92;;
7460;SDS011;6757;52.258;12.840;2022-10-17T12:56:35;6.90;;;2.50;;
7460;SDS011;6757;52.258;12.840;2022-10-17T12:59:05;5.45;;;2.17;;
7460;SDS011;6757;52.258;12.840;2022-10-17T13:01:41;5.65;;;2.40;;
7460;SDS011;6757;52.258;12.840;2022-10-17T13:04:11;3.78;;;2.28;;
7460;SDS011;6757;52.258;12.840;2022-10-17T13:06:42;3.78;;;2.17;;
7460;SDS011;6757;52.258;12.840;2022-10-17T13:09:16;4.10;;;2.20;;
7460;SDS011;6757;52.258;12.840;2022-10-17T13:11:53;4.78;;;2.33;;
7460;SDS011;6757;52.258;12.840;2022-10-17T13:14:23;5.57;;;2.40;;
7460;SDS011;6757;52.258;12.840;2022-10-17T13:16:52;5.70;;;2.35;;
7460;SDS011;6757;52.258;12.840;2022-10-17T13:19:22;3.33;;;1.95;;
7460;SDS011;6757;52.258;12.840;2022-10-17T13:21:51;5.15;;;2.38;;
7460;SDS011;6757;52.258;12.840;2022-10-17T13:24:22;4.10;;;2.15;;
7460;SDS011;6757;52.258;12.840;2022-10-17T13:26:57;4.68;;;2.30;;
7460;SDS011;6757;52.258;12.840;2022-10-17T13:29:25;5.85;;;3.05;;
7460;SDS011;6757;52.258;12.840;2022-10-17T13:31:54;4.25;;;2.20;;
7460;SDS011;6757;52.258;12.840;2022-10-17T13:34:25;4.55;;;2.15;;
7460;SDS011;6757;52.258;12.840;2022-10-17T13:36:54;4.88;;;2.50;;
7460;SDS011;6757;52.258;12.840;2022-10-17T13:39:26;2.92;;;1.92;;
7460;SDS011;6757;52.258;12.840;2022-10-17T13:42:01;3.75;;;2.42;;
7460;SDS011;6757;52.258;12.840;2022-10-17T13:44:31;4.43;;;2.33;;
7460;SDS011;6757;52.258;12.840;2022-10-17T13:47:00;2.20;;;2.00;;
7460;SDS011;6757;52.258;12.840;2022-10-17T13:49:29;3.50;;;2.00;;
7460;SDS011;6757;52.258;12.840;2022-10-17T13:52:00;3.22;;;2.13;;
7460;SDS011;6757;52.258;12.840;2022-10-17T13:54:31;5.80;;;2.30;;
7460;SDS011;6757;52.258;12.840;2022-10-17T13:57:13;3.75;;;2.30;;
7460;SDS011;6757;52.258;12.840;2022-10-17T13:59:45;4.32;;;2.10;;
7460;SDS011;6757;52.258;12.840;2022-10-17T14:02:16;3.60;;;2.10;;
7460;SDS011;6757;52.258;12.840;2022-10-17T14:04:45;3.97;;;2.20;;
7460;SDS011;6757;52.258;12.840;2022-10-17T14:07:18;2.00;;;1.80;;
7460;SDS011;6757;52.258;12.840;2022-10-17T14:09:51;3.50;;;2.20;;
7460;SDS011;6757;52.258;12.840;2022-10-17T14:12:19;3.83;;;2.30;;
7460;SDS011;6757;52.258;12.840;2022-10-17T14:14:49;3.53;;;2.30;;
7460;SDS011;6757;52.258;12.840;2022-10-17T14:17:20;2.83;;;1.92;;
7460;SDS011;6757;52.258;12.840;2022-10-17T14:19:52;2.20;;;2.00;;
7460;SDS011;6757;52.258;12.840;2022-10-17T14:22:25;3.92;;;2.10;;
7460;SDS011;6757;52.258;12.840;2022-10-17T14:24:53;3.22;;;1.80;;
7460;SDS011;6757;52.258;12.840;2022-10-17T14:27:27;4.20;;;2.15;;
7460;SDS011;6757;52.258;12.840;2022-10-17T14:29:58;8.20;;;2.72;;
7460;SDS011;6757;52.258;12.840;2022-10-17T14:32:29;3.90;;;2.20;;
7460;SDS011;6757;52.258;12.840;2022-10-17T14:35:01;3.97;;;2.20;;
7460;SDS011;6757;52.258;12.840;2022-10-17T14:37:31;5.45;;;2.17;;
7460;SDS011;6757;52.258;12.840;2022-10-17T14:40:04;4.55;;;2.50;;
7460;SDS011;6757;52.258;12.840;2022-10-17T14:42:36;4.10;;;2.33;;
7460;SDS011;6757;52.258;12.840;2022-10-17T14:45:06;4.63;;;2.22;;
7460;SDS011;6757;52.258;12.840;2022-10-17T14:47:37;3.92;;;2.28;;
7460;SDS011;6757;52.258;12.840;2022-10-17T14:50:06;3.72;;;2.03;;
7460;SDS011;6757;52.258;12.840;2022-10-17T14:52:57;5.40;;;2.58;;
7460;SDS011;6757;52.258;12.840;2022-10-17T14:55:29;3.88;;;2.05;;
7460;SDS011;6757;52.258;12.840;2022-10-17T14:57:59;3.05;;;1.80;;
7460;SDS011;6757;52.258;12.840;2022-10-17T15:00:27;4.53;;;2.38;;
7460;SDS011;6757;52.258;12.840;2022-10-17T15:02:54;3.35;;;2.13;;
7460;SDS011;6757;52.258;12.840;2022-10-17T15:05:22;3.97;;;2.38;;
7460;SDS011;6757;52.258;12.840;2022-10-17T15:07:49;3.50;;;2.10;;
7460;SDS011;6757;52.258;12.840;2022-10-17T15:10:23;3.72;;;2.20;;
7460;SDS011;6757;52.258;12.840;2022-10-17T15:12:55;5.07;;;2.25;;
7460;SDS011;6757;52.258;12.840;2022-10-17T15:15:25;3.25;;;2.05;;
7460;SDS011;6757;52.258;12.840;2022-10-17T15:17:53;4.18;;;2.10;;
7460;SDS011;6757;52.258;12.840;2022-10-17T15:20:19;2.72;;;1.90;;
7460;SDS011;6757;52.258;12.840;2022-10-17T15:22:50;3.00;;;1.92;;
7460;SDS011;6757;52.258;12.840;2022-10-17T15:25:17;4.68;;;2.50;;
7460;SDS011;6757;52.258;12.840;2022-10-17T15:27:44;3.92;;;2.08;;
7460;SDS011;6757;52.258;12.840;2022-10-17T15:30:15;3.63;;;2.20;;
7460;SDS011;6757;52.258;12.840;2022-10-17T15:32:48;3.30;;;2.03;;
7460;SDS011;6757;52.258;12.840;2022-10-17T15:35:15;2.15;;;1.63;;
7460;SDS011;6757;52.258;12.840;2022-10-17T15:37:43;3.83;;;2.10;;
7460;SDS011;6757;52.258;12.840;2022-10-17T15:40:12;5.47;;;2.05;;
7460;SDS011;6757;52.258;12.840;2022-10-17T15:42:41;5.85;;;2.22;;
7460;SDS011;6757;52.258;12.840;2022-10-17T15:45:08;4.00;;;2.35;;
7460;SDS011;6757;52.258;12.840;2022-10-17T15:47:36;4.30;;;2.30;;
7460;SDS011;6757;52.258;12.840;2022-10-17T15:50:05;3.10;;;2.10;;